Time;durP1;ratioP1;P1;durP2;ratioP2;P2;SDS_P1;SDS_P2;PMS_P1;PMS_P2;Temp;Humidity;BMP_temperature;BMP_pressure;BME280_temperature;BME280_humidity;BME280_pressure;Samples;Min_cycle;Max_cycle;Signal;HPM_P1;HPM_P2
2023/06/03 00:01:11;;;;;;;1.15;0.88;;;;;;;;;;6145411;23;20026;-57
2023/06/03 00:03:39;;;;;;;2.42;1.10;;;;;;;;;;6147193;23;20033;-52
2023/06/03 00:06:06;;;;;;;2.03;1.20;;;;;;;;;;6147391;23;20027;-49
2023/06/03 00:08:42;;;;;;;2.15;0.70;;;;;;;;;;6146226;23;20568;-49
2023/06/03 00:11:11;;;;;;;0.70;0.63;;;;;;;;;;6145608;23;20033;-52
2023/06/03 00:13:45;;;;;;;2.45;1.00;;;;;;;;;;6147301;23;20092;-53
2023/06/03 00:16:12;;;;;;;2.97;0.98;;;;;;;;;;6143163;23;20022;-56
2023/06/03 00:18:39;;;;;;;3.03;1.45;;;;;;;;;;6145536;23;20113;-66
2023/06/03 00:21:16;;;;;;;2.85;1.10;;;;;;;;;;6142449;23;20088;-65
2023/06/03 00:23:45;;;;;;;2.22;1.20;;;;;;;;;;6146362;23;20025;-66
2023/06/03 00:26:13;;;;;;;2.30;0.90;;;;;;;;;;6147401;23;20036;-66
2023/06/03 00:28:47;;;;;;;5.30;0.98;;;;;;;;;;6146378;23;20500;-65
2023/06/03 00:31:30;;;;;;;1.52;0.93;;;;;;;;;;6145220;23;20108;-66
2023/06/03 00:34:11;;;;;;;1.73;0.80;;;;;;;;;;6145442;23;20555;-55
2023/06/03 00:36:39;;;;;;;1.08;0.98;;;;;;;;;;6147825;23;20021;-58
2023/06/03 00:39:13;;;;;;;6.18;1.02;;;;;;;;;;6145723;23;20029;-55
2023/06/03 00:41:40;;;;;;;1.52;0.90;;;;;;;;;;6146255;23;20392;-65
2023/06/03 00:44:07;;;;;;;2.30;1.10;;;;;;;;;;6146622;23;20551;-49
2023/06/03 00:46:42;;;;;;;1.40;0.85;;;;;;;;;;6146045;23;20021;-48
2023/06/03 00:49:09;;;;;;;1.02;0.80;;;;;;;;;;6145344;23;20032;-47
2023/06/03 00:51:43;;;;;;;2.83;1.20;;;;;;;;;;6146517;23;20080;-47
2023/06/03 00:54:10;;;;;;;1.83;1.23;;;;;;;;;;6145157;23;20100;-50
2023/06/03 00:56:43;;;;;;;1.92;1.08;;;;;;;;;;6147447;23;20030;-51
2023/06/03 00:59:17;;;;;;;4.45;1.08;;;;;;;;;;6146210;23;20473;-49
2023/06/03 01:01:45;;;;;;;1.15;0.88;;;;;;;;;;6146338;23;20017;-47
2023/06/03 01:04:16;;;;;;;1.40;1.10;;;;;;;;;;6145065;23;20022;-49
2023/06/03 01:07:01;;;;;;;2.78;1.40;;;;;;;;;;6146853;23;20048;-49
2023/06/03 01:09:47;;;;;;;3.60;1.00;;;;;;;;;;6146975;23;20032;-46
2023/06/03 01:12:34;;;;;;;2.83;1.27;;;;;;;;;;6146021;23;20029;-61
2023/06/03 01:15:06;;;;;;;2.60;1.00;;;;;;;;;;6144554;23;20492;-50
2023/06/03 01:17:45;;;;;;;2.63;1.10;;;;;;;;;;6147350;23;20029;-50
2023/06/03 01:20:12;;;;;;;1.30;0.75;;;;;;;;;;6143901;23;20033;-49
2023/06/03 01:22:49;;;;;;;1.00;0.90;;;;;;;;;;6145423;23;20052;-46
2023/06/03 01:25:20;;;;;;;1.98;1.15;;;;;;;;;;6145791;23;20033;-48
2023/06/03 01:27:57;;;;;;;3.20;1.00;;;;;;;;;;6146894;23;20077;-50
2023/06/03 01:30:24;;;;;;;1.67;1.08;;;;;;;;;;6146144;23;20095;-50
2023/06/03 01:32:52;;;;;;;1.50;1.20;;;;;;;;;;6146998;23;20099;-54
2023/06/03 01:35:33;;;;;;;5.93;1.48;;;;;;;;;;6146495;23;20396;-54
2023/06/03 01:38:01;;;;;;;2.55;1.02;;;;;;;;;;6145613;23;20423;-57
2023/06/03 01:40:35;;;;;;;1.63;1.15;;;;;;;;;;6146179;23;20030;-45
2023/06/03 01:43:03;;;;;;;;;;;;;;;;;;6146066;23;20084;-66
2023/06/03 01:45:30;;;;;;;2.60;1.00;;;;;;;;;;6145643;23;19976;-65
2023/06/03 01:48:04;;;;;;;4.53;1.13;;;;;;;;;;6145591;23;20025;-66
2023/06/03 01:50:31;;;;;;;4.18;1.15;;;;;;;;;;6146482;23;20068;-64
2023/06/03 01:53:05;;;;;;;2.15;1.08;;;;;;;;;;6145235;23;20025;-66
2023/06/03 01:55:32;;;;;;;4.15;1.30;;;;;;;;;;6144989;23;20030;-65
2023/06/03 01:58:00;;;;;;;7.40;1.60;;;;;;;;;;6147227;23;20056;-66
2023/06/03 02:00:33;;;;;;;1.25;0.75;;;;;;;;;;6145196;23;20026;-66
2023/06/03 02:03:00;;;;;;;4.30;1.45;;;;;;;;;;6146020;23;20021;-66
2023/06/03 02:05:34;;;;;;;3.60;1.40;;;;;;;;;;6142506;23;20564;-65
2023/06/03 02:08:02;;;;;;;3.47;1.30;;;;;;;;;;6143165;23;20018;-47
2023/06/03 02:10:30;;;;;;;3.70;1.35;;;;;;;;;;6144884;23;20107;-64
2023/06/03 02:13:04;;;;;;;1.40;1.10;;;;;;;;;;6146738;23;20386;-65
2023/06/03 02:15:31;;;;;;;5.22;1.42;;;;;;;;;;6143830;23;20381;-65
2023/06/03 02:18:06;;;;;;;2.80;1.23;;;;;;;;;;6142942;23;20851;-65
2023/06/03 02:20:33;;;;;;;;;;;;;;;;;;6143329;23;20690;-65
2023/06/03 02:23:02;;;;;;;7.10;1.15;;;;;;;;;;6144881;23;20427;-65
2023/06/03 02:25:36;;;;;;;4.05;1.08;;;;;;;;;;6145064;23;20092;-45
2023/06/03 02:28:04;;;;;;;0.80;0.80;;;;;;;;;;6146399;23;20257;-45
2023/06/03 02:30:31;;;;;;;5.63;1.38;;;;;;;;;;6145076;23;20029;-50
2023/06/03 02:33:05;;;;;;;2.22;0.95;;;;;;;;;;6141612;23;20033;-46
2023/06/03 02:35:46;;;;;;;1.65;1.27;;;;;;;;;;6145430;23;20024;-46
2023/06/03 02:38:14;;;;;;;3.75;1.30;;;;;;;;;;6140470;23;20084;-48
2023/06/03 02:40:48;;;;;;;1.92;1.10;;;;;;;;;;6144151;23;20025;-59
2023/06/03 02:43:22;;;;;;;2.97;1.10;;;;;;;;;;6145321;23;20018;-60
2023/06/03 02:45:56;;;;;;;3.20;1.20;;;;;;;;;;6144690;23;20067;-59
2023/06/03 02:48:23;;;;;;;3.53;1.20;;;;;;;;;;6145511;23;20027;-59
2023/06/03 02:50:57;;;;;;;2.95;1.25;;;;;;;;;;6142588;23;20489;-58
2023/06/03 02:53:24;;;;;;;1.75;1.08;;;;;;;;;;6144829;23;20030;-59
2023/06/03 02:55:51;;;;;;;9.00;1.20;;;;;;;;;;6144783;23;20072;-54
2023/06/03 02:58:25;;;;;;;1.52;1.13;;;;;;;;;;6145607;23;20092;-53
2023/06/03 03:00:52;;;;;;;1.13;1.02;;;;;;;;;;6142065;23;20370;-55
2023/06/03 03:03:26;;;;;;;1.35;1.20;;;;;;;;;;6145924;23;20437;-50
2023/06/03 03:05:54;;;;;;;5.75;1.75;;;;;;;;;;6141485;23;20832;-53
2023/06/03 03:08:25;;;;;;;1.27;1.10;;;;;;;;;;6143293;23;20093;-51
2023/06/03 03:10:59;;;;;;;1.50;1.10;;;;;;;;;;6143465;23;20482;-49
2023/06/03 03:13:26;;;;;;;1.38;0.98;;;;;;;;;;6143883;23;20025;-55
2023/06/03 03:16:00;;;;;;;2.03;1.30;;;;;;;;;;6144547;23;20032;-53
2023/06/03 03:18:27;;;;;;;2.30;1.10;;;;;;;;;;6143513;23;20029;-52
2023/06/03 03:20:54;;;;;;;1.70;1.15;;;;;;;;;;6143789;23;20189;-53
2023/06/03 03:23:29;;;;;;;1.40;0.90;;;;;;;;;;6145192;23;20425;-59
2023/06/03 03:25:57;;;;;;;4.40;1.35;;;;;;;;;;6143741;23;20021;-59
2023/06/03 03:28:25;;;;;;;1.48;1.17;;;;;;;;;;6144804;23;20096;-59
2023/06/03 03:30:59;;;;;;;3.47;1.20;;;;;;;;;;6144466;23;20025;-59
2023/06/03 03:33:26;;;;;;;1.25;1.10;;;;;;;;;;6143881;23;20032;-47
2023/06/03 03:36:28;;;;;;;4.38;1.30;;;;;;;;;;6143891;23;20088;-47
2023/06/03 03:39:03;;;;;;;1.65;1.10;;;;;;;;;;6145074;23;20092;-47
2023/06/03 03:41:42;;;;;;;3.47;1.00;;;;;;;;;;6144824;23;20025;-45
2023/06/03 03:44:10;;;;;;;0.82;0.80;;;;;;;;;;6143367;23;20742;-47
2023/06/03 03:46:48;;;;;;;1.92;1.35;;;;;;;;;;6141318;23;20100;-45
2023/06/03 03:49:19;;;;;;;2.70;1.10;;;;;;;;;;6144954;23;20022;-46
2023/06/03 03:51:54;;;;;;;2.20;1.00;;;;;;;;;;6141511;23;20112;-59
2023/06/03 03:54:23;;;;;;;3.47;1.15;;;;;;;;;;6146535;23;20024;-59
2023/06/03 03:56:57;;;;;;;3.08;1.35;;;;;;;;;;6146908;23;20112;-58
2023/06/03 03:59:31;;;;;;;2.95;0.98;;;;;;;;;;6145633;23;20240;-60
2023/06/03 04:01:58;;;;;;;2.13;1.10;;;;;;;;;;6147818;23;20025;-56
2023/06/03 04:04:37;;;;;;;1.67;0.98;;;;;;;;;;6146161;23;20025;-59
2023/06/03 04:07:04;;;;;;;1.85;1.00;;;;;;;;;;6146082;23;20029;-59
2023/06/03 04:09:39;;;;;;;1.23;1.00;;;;;;;;;;6145946;23;20104;-58
2023/06/03 04:12:10;;;;;;;1.38;1.23;;;;;;;;;;6145958;23;20543;-59
2023/06/03 04:14:48;;;;;;;3.17;1.10;;;;;;;;;;6147560;23;20029;-59
2023/06/03 04:17:20;;;;;;;1.52;1.00;;;;;;;;;;6142665;23;20032;-58
2023/06/03 04:19:55;;;;;;;4.45;1.38;;;;;;;;;;6142554;23;20454;-65
2023/06/03 04:22:24;;;;;;;1.98;1.13;;;;;;;;;;6146595;23;20029;-65
2023/06/03 04:24:59;;;;;;;4.38;0.98;;;;;;;;;;6142361;23;20354;-65
2023/06/03 04:27:27;;;;;;;2.65;1.40;;;;;;;;;;6145736;23;20031;-65
2023/06/03 04:30:01;;;;;;;2.65;1.20;;;;;;;;;;6146144;23;20073;-65
2023/06/03 04:32:29;;;;;;;3.30;0.70;;;;;;;;;;6146614;23;20040;-54
2023/06/03 04:34:56;;;;;;;1.65;1.00;;;;;;;;;;6144756;23;20371;-48
2023/06/03 04:37:37;;;;;;;4.05;1.40;;;;;;;;;;6147310;23;20022;-48
2023/06/03 04:40:04;;;;;;;4.28;1.70;;;;;;;;;;6144245;23;20385;-53
2023/06/03 04:42:40;;;;;;;1.73;1.10;;;;;;;;;;6144594;23;20029;-51
2023/06/03 04:45:08;;;;;;;2.15;1.02;;;;;;;;;;6145797;23;20029;-49
2023/06/03 04:47:42;;;;;;;1.33;0.70;;;;;;;;;;6142586;23;20033;-47
2023/06/03 04:50:10;;;;;;;1.27;0.73;;;;;;;;;;6141225;23;20053;-51
2023/06/03 04:52:37;;;;;;;1.02;0.93;;;;;;;;;;6147005;23;20124;-52
2023/06/03 04:55:12;;;;;;;2.15;0.80;;;;;;;;;;6142116;23;20485;-52
2023/06/03 04:57:39;;;;;;;1.63;0.80;;;;;;;;;;6145749;23;20105;-57
2023/06/03 05:00:18;;;;;;;1.52;0.73;;;;;;;;;;6144083;23;20049;-50
2023/06/03 05:02:55;;;;;;;1.33;1.00;;;;;;;;;;6145595;23;20025;-47
2023/06/03 05:05:29;;;;;;;1.75;0.88;;;;;;;;;;6141990;23;20064;-51
2023/06/03 05:08:03;;;;;;;1.33;0.90;;;;;;;;;;6142587;23;20029;-50
2023/06/03 05:10:30;;;;;;;4.63;0.90;;;;;;;;;;6146317;23;20540;-52
2023/06/03 05:13:06;;;;;;;1.38;0.80;;;;;;;;;;6144655;23;20029;-52
2023/06/03 05:15:33;;;;;;;2.00;0.77;;;;;;;;;;6147081;23;20021;-47
2023/06/03 05:18:01;;;;;;;;;;;;;;;;;;6145754;23;20025;-48
2023/06/03 05:20:35;;;;;;;4.38;0.80;;;;;;;;;;6144885;23;19971;-46
2023/06/03 05:23:02;;;;;;;2.38;0.98;;;;;;;;;;6144192;23;20018;-48
2023/06/03 05:25:30;;;;;;;3.35;1.10;;;;;;;;;;6146853;23;20029;-49
2023/06/03 05:28:03;;;;;;;1.27;1.15;;;;;;;;;;6143798;23;20053;-66
2023/06/03 05:30:31;;;;;;;3.55;0.90;;;;;;;;;;6145419;23;20029;-49
2023/06/03 05:33:05;;;;;;;0.90;0.65;;;;;;;;;;6143980;23;20025;-48
2023/06/03 05:35:39;;;;;;;2.15;1.20;;;;;;;;;;6142611;23;20026;-50
2023/06/03 05:38:12;;;;;;;1.63;0.93;;;;;;;;;;6144306;23;20394;-51
2023/06/03 05:40:39;;;;;;;4.07;0.70;;;;;;;;;;6141075;23;20108;-47
2023/06/03 05:43:07;;;;;;;2.50;1.05;;;;;;;;;;6140798;23;20022;-48
2023/06/03 05:45:41;;;;;;;4.20;1.33;;;;;;;;;;6145585;23;20384;-65
2023/06/03 05:48:08;;;;;;;7.32;0.95;;;;;;;;;;6144583;23;20033;-65
2023/06/03 05:50:37;;;;;;;1.15;0.73;;;;;;;;;;6143157;23;20073;-65
2023/06/03 05:53:10;;;;;;;1.33;0.80;;;;;;;;;;6145548;23;20092;-64
2023/06/03 05:55:37;;;;;;;3.38;0.75;;;;;;;;;;6143971;23;20492;-65
2023/06/03 05:58:11;;;;;;;3.78;1.00;;;;;;;;;;6144921;23;20025;-47
2023/06/03 06:00:38;;;;;;;3.47;0.82;;;;;;;;;;6141018;23;20030;-49
2023/06/03 06:03:05;;;;;;;2.30;1.20;;;;;;;;;;6142301;23;20109;-49
2023/06/03 06:05:39;;;;;;;1.42;0.80;;;;;;;;;;6142437;23;20022;-47
2023/06/03 06:08:07;;;;;;;2.85;0.98;;;;;;;;;;6143916;23;20064;-51
2023/06/03 06:10:40;;;;;;;0.82;0.55;;;;;;;;;;6141099;23;20096;-48
2023/06/03 06:13:07;;;;;;;1.20;1.05;;;;;;;;;;6143674;23;20026;-60
2023/06/03 06:15:34;;;;;;;1.48;1.08;;;;;;;;;;6138410;23;20097;-59
2023/06/03 06:18:08;;;;;;;5.90;1.30;;;;;;;;;;6139348;23;20033;-59
2023/06/03 06:20:35;;;;;;;1.00;0.82;;;;;;;;;;6145005;23;20381;-58
2023/06/03 06:23:02;;;;;;;1.85;1.15;;;;;;;;;;6141530;23;20029;-60
2023/06/03 06:25:36;;;;;;;1.60;0.98;;;;;;;;;;6140620;23;20025;-59
2023/06/03 06:28:05;;;;;;;4.18;1.17;;;;;;;;;;6137642;23;20033;-49
2023/06/03 06:30:39;;;;;;;1.65;1.10;;;;;;;;;;6138101;23;20025;-54
2023/06/03 06:33:06;;;;;;;3.80;1.30;;;;;;;;;;6135946;23;20033;-51
2023/06/03 06:35:35;;;;;;;2.67;1.15;;;;;;;;;;6138368;23;20107;-55
2023/06/03 06:38:16;;;;;;;3.67;1.08;;;;;;;;;;6136833;23;20611;-52
2023/06/03 06:40:45;;;;;;;5.85;1.33;;;;;;;;;;6140336;23;20417;-54
2023/06/03 06:43:25;;;;;;;3.95;1.30;;;;;;;;;;6145001;23;20065;-65
2023/06/03 06:45:56;;;;;;;3.75;1.67;;;;;;;;;;6143012;23;20501;-65
2023/06/03 06:48:33;;;;;;;5.47;1.65;;;;;;;;;;6143736;23;20021;-65
2023/06/03 06:51:00;;;;;;;7.05;1.40;;;;;;;;;;6142808;23;20036;-65
2023/06/03 06:53:35;;;;;;;5.00;1.63;;;;;;;;;;6145493;23;20525;-65
2023/06/03 06:56:07;;;;;;;3.08;1.10;;;;;;;;;;6143962;23;20025;-60
2023/06/03 06:58:41;;;;;;;2.95;1.38;;;;;;;;;;6143627;23;20131;-60
2023/06/03 07:01:10;;;;;;;3.30;1.45;;;;;;;;;;6139618;23;20055;-60
2023/06/03 07:03:37;;;;;;;;;;;;;;;;;;6144737;23;20096;-60
2023/06/03 07:06:11;;;;;;;2.47;1.08;;;;;;;;;;6142001;23;19916;-60
2023/06/03 07:08:38;;;;;;;2.40;0.85;;;;;;;;;;6141366;23;20025;-60
2023/06/03 07:11:12;;;;;;;6.38;1.02;;;;;;;;;;6145937;23;20497;-52
2023/06/03 07:13:39;;;;;;;2.10;1.00;;;;;;;;;;6145267;23;20080;-50
2023/06/03 07:16:15;;;;;;;4.18;1.70;;;;;;;;;;6144854;23;20073;-50
2023/06/03 07:18:42;;;;;;;2.88;1.30;;;;;;;;;;6142611;23;20036;-49
2023/06/03 07:21:10;;;;;;;3.53;1.00;;;;;;;;;;6142565;23;20643;-64
2023/06/03 07:23:45;;;;;;;3.28;1.23;;;;;;;;;;6138398;23;20022;-50
2023/06/03 07:26:13;;;;;;;4.72;1.10;;;;;;;;;;6140331;23;20101;-47
2023/06/03 07:28:47;;;;;;;2.95;1.05;;;;;;;;;;6143580;23;20017;-52
2023/06/03 07:31:14;;;;;;;2.17;1.08;;;;;;;;;;6143457;23;20060;-52
2023/06/03 07:33:50;;;;;;;2.75;1.20;;;;;;;;;;6144197;23;20036;-54
2023/06/03 07:36:31;;;;;;;2.10;1.30;;;;;;;;;;6143148;23;20028;-54
2023/06/03 07:39:06;;;;;;;7.90;1.45;;;;;;;;;;6143321;23;20077;-58
2023/06/03 07:41:37;;;;;;;1.55;1.02;;;;;;;;;;6143983;23;20029;-59
2023/06/03 07:44:12;;;;;;;2.58;1.08;;;;;;;;;;6142618;23;20055;-59
2023/06/03 07:46:41;;;;;;;1.73;1.13;;;;;;;;;;6138385;23;20033;-59
2023/06/03 07:49:16;;;;;;;4.90;1.25;;;;;;;;;;6143371;23;20029;-56
2023/06/03 07:51:48;;;;;;;2.88;1.25;;;;;;;;;;6145121;23;20025;-57
2023/06/03 07:54:15;;;;;;;2.97;1.40;;;;;;;;;;6142491;23;20025;-59
2023/06/03 07:56:49;;;;;;;4.30;1.30;;;;;;;;;;6142137;23;20029;-59
2023/06/03 07:59:17;;;;;;;3.70;1.30;;;;;;;;;;6142354;23;20524;-59
2023/06/03 08:01:53;;;;;;;2.47;1.27;;;;;;;;;;6146298;23;20025;-58
2023/06/03 08:04:20;;;;;;;2.60;1.10;;;;;;;;;;6146398;23;20056;-59
2023/06/03 08:06:52;;;;;;;1.58;1.10;;;;;;;;;;6145150;23;20026;-65
2023/06/03 08:09:27;;;;;;;2.78;1.15;;;;;;;;;;6143205;23;20103;-59
2023/06/03 08:11:55;;;;;;;2.70;1.35;;;;;;;;;;6143435;23;20088;-59
2023/06/03 08:14:33;;;;;;;2.47;1.23;;;;;;;;;;6145278;23;20029;-59
2023/06/03 08:17:09;;;;;;;4.80;1.17;;;;;;;;;;6142638;23;20025;-62
2023/06/03 08:19:45;;;;;;;2.92;1.20;;;;;;;;;;6146384;23;20028;-59
2023/06/03 08:22:22;;;;;;;3.22;1.40;;;;;;;;;;6148265;23;20033;-50
2023/06/03 08:24:50;;;;;;;3.35;1.40;;;;;;;;;;6146216;23;20567;-55
2023/06/03 08:27:23;;;;;;;3.63;1.13;;;;;;;;;;6145212;23;20021;-55
2023/06/03 08:29:52;;;;;;;2.50;1.15;;;;;;;;;;6148503;23;20030;-55
2023/06/03 08:32:19;;;;;;;5.28;1.40;;;;;;;;;;6144906;23;20908;-55
2023/06/03 08:35:00;;;;;;;6.53;1.50;;;;;;;;;;6147140;23;20444;-56
2023/06/03 08:37:27;;;;;;;2.88;1.15;;;;;;;;;;6146548;23;20552;-50
2023/06/03 08:40:05;;;;;;;4.32;1.05;;;;;;;;;;6146342;23;20497;-52
2023/06/03 08:42:36;;;;;;;3.90;1.23;;;;;;;;;;6144621;23;20029;-52
2023/06/03 08:45:11;;;;;;;2.95;1.20;;;;;;;;;;6146918;23;20629;-49
2023/06/03 08:48:04;;;;;;;2.40;1.42;;;;;;;;;;6145788;23;20084;-56
2023/06/03 08:50:37;;;;;;;10.00;1.70;;;;;;;;;;6144996;23;20128;-50
2023/06/03 08:53:08;;;;;;;1.38;1.20;;;;;;;;;;6146669;23;20025;-55
2023/06/03 08:55:37;;;;;;;4.35;1.25;;;;;;;;;;6144197;23;20030;-53
2023/06/03 08:58:19;;;;;;;3.35;1.15;;;;;;;;;;6147088;23;20025;-52
2023/06/03 09:00:47;;;;;;;2.00;1.10;;;;;;;;;;6143491;23;20030;-52
2023/06/03 09:03:21;;;;;;;2.38;1.02;;;;;;;;;;6146866;23;20398;-53
2023/06/03 09:05:49;;;;;;;1.80;1.45;;;;;;;;;;6146150;23;20057;-51
2023/06/03 09:08:25;;;;;;;1.52;1.20;;;;;;;;;;6143579;23;20072;-49
2023/06/03 09:10:52;;;;;;;4.03;1.13;;;;;;;;;;6144586;23;20123;-52
2023/06/03 09:13:28;;;;;;;1.85;1.20;;;;;;;;;;6146635;23;20029;-51
2023/06/03 09:15:56;;;;;;;2.45;0.98;;;;;;;;;;6145041;23;20049;-53
2023/06/03 09:18:23;;;;;;;;;;;;;;;;;;6140150;23;20022;-51
2023/06/03 09:20:57;;;;;;;1.85;1.33;;;;;;;;;;6145966;23;19916;-51
2023/06/03 09:23:25;;;;;;;;;;;;;;;;;;6143798;23;20022;-49
2023/06/03 09:25:52;;;;;;;3.92;1.15;;;;;;;;;;6146478;23;19923;-52
2023/06/03 09:28:26;;;;;;;1.40;1.30;;;;;;;;;;6145856;23;20022;-51
2023/06/03 09:30:54;;;;;;;2.30;0.90;;;;;;;;;;6143717;23;20021;-53
2023/06/03 09:33:27;;;;;;;2.50;1.27;;;;;;;;;;6144591;23;20025;-61
2023/06/03 09:36:15;;;;;;;3.75;1.00;;;;;;;;;;6146270;23;20053;-60
2023/06/03 09:38:55;;;;;;;3.47;1.10;;;;;;;;;;6146437;23;20095;-61
2023/06/03 09:41:23;;;;;;;3.85;1.40;;;;;;;;;;6144242;23;20029;-61
2023/06/03 09:43:57;;;;;;;3.42;1.17;;;;;;;;;;6142971;23;20064;-57
2023/06/03 09:46:26;;;;;;;4.63;1.30;;;;;;;;;;6145037;23;20437;-55
2023/06/03 09:48:53;;;;;;;4.00;1.40;;;;;;;;;;6145445;23;20584;-54
2023/06/03 09:51:40;;;;;;;2.38;1.25;;;;;;;;;;6145345;23;20771;-56
2023/06/03 09:54:15;;;;;;;1.55;1.10;;;;;;;;;;6141167;23;20029;-53
2023/06/03 09:56:50;;;;;;;5.22;1.23;;;;;;;;;;6142545;23;20029;-54
2023/06/03 09:59:29;;;;;;;2.17;1.05;;;;;;;;;;6146357;23;20059;-56
2023/06/03 10:02:09;;;;;;;2.28;0.63;;;;;;;;;;6145210;23;20025;-61
2023/06/03 10:04:39;;;;;;;1.27;0.82;;;;;;;;;;6144673;23;20516;-61
2023/06/03 10:07:21;;;;;;;2.53;1.20;;;;;;;;;;6145668;23;20084;-61
2023/06/03 10:09:49;;;;;;;1.77;1.20;;;;;;;;;;6145834;23;20088;-61
2023/06/03 10:12:29;;;;;;;1.75;1.10;;;;;;;;;;6144953;23;20781;-55
2023/06/03 10:15:00;;;;;;;3.00;1.25;;;;;;;;;;6146066;23;20026;-62
2023/06/03 10:17:34;;;;;;;5.00;1.00;;;;;;;;;;6145113;23;20021;-62
2023/06/03 10:20:04;;;;;;;3.55;1.00;;;;;;;;;;6145875;23;20021;-63
2023/06/03 10:22:42;;;;;;;1.27;0.80;;;;;;;;;;6143748;23;20022;-62
2023/06/03 10:25:09;;;;;;;2.75;1.58;;;;;;;;;;6144874;23;20025;-60
2023/06/03 10:27:45;;;;;;;2.08;0.80;;;;;;;;;;6145583;23;20021;-62
2023/06/03 10:30:13;;;;;;;3.78;1.20;;;;;;;;;;6145012;23;20068;-53
2023/06/03 10:32:43;;;;;;;4.55;1.10;;;;;;;;;;6145432;23;20084;-51
2023/06/03 10:35:30;;;;;;;1.88;0.90;;;;;;;;;;6145240;23;20029;-49
2023/06/03 10:38:05;;;;;;;1.38;0.95;;;;;;;;;;6141381;23;20478;-50
2023/06/03 10:40:39;;;;;;;2.53;1.00;;;;;;;;;;6145456;23;20833;-50
2023/06/03 10:43:06;;;;;;;;;;;;;;;;;;6145703;23;20057;-48
2023/06/03 10:45:40;;;;;;;1.88;0.85;;;;;;;;;;6145024;23;19920;-48
2023/06/03 10:48:09;;;;;;;3.42;1.02;;;;;;;;;;6142847;23;20481;-50
2023/06/03 10:50:52;;;;;;;6.45;1.17;;;;;;;;;;6146122;23;20030;-47
2023/06/03 10:53:24;;;;;;;1.98;1.10;;;;;;;;;;6142412;23;20029;-49
2023/06/03 10:56:07;;;;;;;2.13;1.00;;;;;;;;;;6145286;23;20552;-49
2023/06/03 10:58:35;;;;;;;4.13;1.55;;;;;;;;;;6145350;23;20029;-58
2023/06/03 11:01:08;;;;;;;6.32;1.30;;;;;;;;;;6145328;23;20028;-58
2023/06/03 11:03:37;;;;;;;;;;;;;;;;;;6143598;23;20029;-57
2023/06/03 11:06:22;;;;;;;5.75;1.55;;;;;;;;;;6140325;23;19927;-58
2023/06/03 11:09:05;;;;;;;2.78;1.23;;;;;;;;;;6145358;23;20393;-61
2023/06/03 11:11:43;;;;;;;3.60;1.40;;;;;;;;;;6145421;23;20029;-63
2023/06/03 11:14:11;;;;;;;6.38;0.90;;;;;;;;;;6143324;23;20030;-61
2023/06/03 11:16:57;;;;;;;5.78;1.38;;;;;;;;;;6145161;23;20026;-61
2023/06/03 11:19:35;;;;;;;4.03;1.48;;;;;;;;;;6145929;23;20076;-61
2023/06/03 11:22:09;;;;;;;4.07;1.40;;;;;;;;;;6144415;23;20115;-61
2023/06/03 11:24:45;;;;;;;2.97;1.30;;;;;;;;;;6142848;23;20025;-61
2023/06/03 11:27:19;;;;;;;4.57;1.27;;;;;;;;;;6142809;23;20072;-54
2023/06/03 11:29:46;;;;;;;4.15;1.33;;;;;;;;;;6145421;23;20556;-56
2023/06/03 11:32:20;;;;;;;2.10;1.15;;;;;;;;;;6139891;23;20068;-56
2023/06/03 11:35:11;;;;;;;3.35;1.52;;;;;;;;;;6145604;23;20029;-56
2023/06/03 11:37:52;;;;;;;2.97;1.20;;;;;;;;;;6127541;23;20025;-58
2023/06/03 11:40:20;;;;;;;4.97;1.75;;;;;;;;;;6145806;23;20032;-53
2023/06/03 11:42:54;;;;;;;4.53;1.40;;;;;;;;;;6144607;23;20104;-51
2023/06/03 11:45:24;;;;;;;6.53;1.00;;;;;;;;;;6143917;23;20081;-52
2023/06/03 11:48:09;;;;;;;3.13;1.30;;;;;;;;;;6143276;23;20536;-52
2023/06/03 11:50:50;;;;;;;3.03;1.08;;;;;;;;;;6144662;23;20036;-53
2023/06/03 11:53:36;;;;;;;3.63;1.08;;;;;;;;;;6144555;23;20025;-52
2023/06/03 11:56:12;;;;;;;4.03;1.20;;;;;;;;;;6145122;23;20068;-55
2023/06/03 11:58:51;;;;;;;3.33;1.10;;;;;;;;;;6144542;23;20021;-53
2023/06/03 12:01:19;;;;;;;8.57;1.40;;;;;;;;;;6143323;23;20028;-51
2023/06/03 12:03:59;;;;;;;2.85;1.30;;;;;;;;;;6144860;23;20025;-47
2023/06/03 12:06:34;;;;;;;1.65;1.15;;;;;;;;;;6145346;23;20025;-55
2023/06/03 12:09:01;;;;;;;1.70;1.20;;;;;;;;;;6143251;23;20096;-58
2023/06/03 12:11:41;;;;;;;3.00;1.27;;;;;;;;;;6143438;23;20026;-57
2023/06/03 12:14:08;;;;;;;3.95;1.50;;;;;;;;;;6145184;23;20103;-60
2023/06/03 12:16:45;;;;;;;3.70;1.20;;;;;;;;;;6146112;23;20025;-60
2023/06/03 12:19:12;;;;;;;5.32;1.33;;;;;;;;;;6145151;23;20362;-59
2023/06/03 12:21:39;;;;;;;8.48;1.20;;;;;;;;;;6145431;23;20056;-60
2023/06/03 12:24:13;;;;;;;5.03;1.58;;;;;;;;;;6147616;23;20025;-57
2023/06/03 12:26:41;;;;;;;6.28;1.48;;;;;;;;;;6144475;23;20050;-58
2023/06/03 12:29:15;;;;;;;2.63;1.33;;;;;;;;;;6143100;23;20037;-58
2023/06/03 12:31:59;;;;;;;3.38;1.48;;;;;;;;;;6145575;23;20025;-52
2023/06/03 12:34:36;;;;;;;2.78;1.20;;;;;;;;;;6146996;23;20029;-56
2023/06/03 12:37:12;;;;;;;8.55;1.63;;;;;;;;;;6139067;23;20666;-57
2023/06/03 12:39:50;;;;;;;2.78;1.50;;;;;;;;;;6141888;23;20088;-55
2023/06/03 12:42:18;;;;;;;2.95;1.42;;;;;;;;;;6144757;23;20022;-59
2023/06/03 12:44:53;;;;;;;2.35;1.35;;;;;;;;;;6141018;23;20029;-57
2023/06/03 12:47:21;;;;;;;3.03;1.35;;;;;;;;;;6140812;23;20051;-57
2023/06/03 12:50:06;;;;;;;5.53;1.60;;;;;;;;;;6142765;23;20054;-59
2023/06/03 12:52:37;;;;;;;;;;;;;;;;;;6141889;23;20029;-57
2023/06/03 12:55:14;;;;;;;2.33;1.17;;;;;;;;;;6145450;23;19948;-57
2023/06/03 12:57:41;;;;;;;3.50;1.50;;;;;;;;;;6141440;23;20022;-55
2023/06/03 13:00:14;;;;;;;4.45;1.50;;;;;;;;;;6146114;23;20061;-59
2023/06/03 13:02:50;;;;;;;2.92;1.30;;;;;;;;;;6145202;23;20029;-52
2023/06/03 13:05:18;;;;;;;1.75;1.13;;;;;;;;;;6144970;23;20026;-54
2023/06/03 13:07:46;;;;;;;3.70;1.25;;;;;;;;;;6143777;23;20058;-55
2023/06/03 13:10:19;;;;;;;2.97;1.33;;;;;;;;;;6145507;23;20025;-53
2023/06/03 13:12:47;;;;;;;2.25;1.10;;;;;;;;;;6144607;23;20430;-54
2023/06/03 13:15:15;;;;;;;4.97;1.58;;;;;;;;;;6145253;23;20025;-53
2023/06/03 13:17:49;;;;;;;6.20;1.55;;;;;;;;;;6144930;23;20663;-54
2023/06/03 13:20:16;;;;;;;;;;;;;;;;;;6146435;23;20677;-59
2023/06/03 13:22:44;;;;;;;3.03;1.38;;;;;;;;;;6141663;23;19995;-60
2023/06/03 13:25:17;;;;;;;5.50;1.67;;;;;;;;;;6144834;23;20092;-60
2023/06/03 13:27:46;;;;;;;3.50;1.60;;;;;;;;;;6143007;23;20080;-60
2023/06/03 13:30:14;;;;;;;4.45;1.58;;;;;;;;;;6145148;23;20029;-63
2023/06/03 13:32:47;;;;;;;2.33;1.40;;;;;;;;;;6144279;23;20022;-54
2023/06/03 13:35:21;;;;;;;;;;;;;;;;;;6141361;23;20029;-53
2023/06/03 13:38:02;;;;;;;2.10;1.52;;;;;;;;;;6145610;23;19926;-53
2023/06/03 13:40:31;;;;;;;2.42;1.42;;;;;;;;;;6145969;23;20032;-54
2023/06/03 13:43:05;;;;;;;3.30;1.42;;;;;;;;;;6146031;23;20436;-55
2023/06/03 13:45:32;;;;;;;;;;;;;;;;;;6145425;23;20099;-54
2023/06/03 13:48:00;;;;;;;4.25;1.33;;;;;;;;;;6143994;23;20107;-54
2023/06/03 13:50:33;;;;;;;3.28;1.20;;;;;;;;;;6146039;23;20022;-66
2023/06/03 13:53:00;;;;;;;6.95;1.33;;;;;;;;;;6140060;23;20560;-54
2023/06/03 13:55:28;;;;;;;8.38;1.67;;;;;;;;;;6143618;23;20026;-49
2023/06/03 13:58:01;;;;;;;3.05;1.50;;;;;;;;;;6142343;23;20029;-53
2023/06/03 14:00:28;;;;;;;2.72;1.40;;;;;;;;;;6144133;23;20190;-53
2023/06/03 14:03:04;;;;;;;4.68;1.40;;;;;;;;;;6144318;23;20030;-53
2023/06/03 14:05:32;;;;;;;4.50;1.30;;;;;;;;;;6143003;23;20493;-50
2023/06/03 14:07:59;;;;;;;7.85;1.85;;;;;;;;;;6142841;23;20299;-57
2023/06/03 14:10:33;;;;;;;5.25;1.63;;;;;;;;;;6145311;23;20026;-57
2023/06/03 14:13:00;;;;;;;6.13;1.27;;;;;;;;;;6145141;23;20053;-54
2023/06/03 14:15:36;;;;;;;3.22;1.45;;;;;;;;;;6144230;23;20029;-57
2023/06/03 14:18:03;;;;;;;4.18;1.60;;;;;;;;;;6144108;23;20025;-62
2023/06/03 14:20:30;;;;;;;;;;;;;;;;;;6146395;23;20021;-64
2023/06/03 14:23:04;;;;;;;4.35;1.90;;;;;;;;;;6142888;23;20377;-65
2023/06/03 14:25:33;;;;;;;7.15;1.70;;;;;;;;;;6144170;23;20385;-65
2023/06/03 14:28:07;;;;;;;11.48;2.05;;;;;;;;;;6142564;23;20022;-66
2023/06/03 14:30:35;;;;;;;3.78;1.88;;;;;;;;;;6143077;23;20072;-65
2023/06/03 14:33:24;;;;;;;5.20;1.67;;;;;;;;;;6139086;23;20032;-66
2023/06/03 14:36:05;;;;;;;7.25;1.70;;;;;;;;;;6144264;23;20512;-65
2023/06/03 14:38:39;;;;;;;4.30;1.40;;;;;;;;;;6139650;23;20040;-65
2023/06/03 14:41:13;;;;;;;6.40;2.20;;;;;;;;;;6144255;23;20021;-66
2023/06/03 14:43:41;;;;;;;4.15;1.63;;;;;;;;;;6144319;23;20088;-65
2023/06/03 14:46:08;;;;;;;4.97;1.80;;;;;;;;;;6145221;23;20022;-60
2023/06/03 14:48:44;;;;;;;7.13;1.77;;;;;;;;;;6141150;23;20067;-50
2023/06/03 14:51:11;;;;;;;12.65;2.25;;;;;;;;;;6144880;23;20021;-52
2023/06/03 14:53:45;;;;;;;3.45;1.58;;;;;;;;;;6141565;23;20025;-49
2023/06/03 14:56:12;;;;;;;4.78;1.98;;;;;;;;;;6143297;23;20504;-50
2023/06/03 14:58:39;;;;;;;5.95;1.95;;;;;;;;;;6144756;23;20021;-49
2023/06/03 15:01:13;;;;;;;25.17;2.85;;;;;;;;;;6144500;23;20096;-50
2023/06/03 15:03:40;;;;;;;4.63;1.98;;;;;;;;;;6143481;23;20025;-53
2023/06/03 15:06:15;;;;;;;3.30;1.80;;;;;;;;;;6142943;23;20494;-50
2023/06/03 15:08:44;;;;;;;17.83;2.83;;;;;;;;;;6145841;23;20080;-52
2023/06/03 15:11:11;;;;;;;6.03;1.70;;;;;;;;;;6140182;23;20460;-50
2023/06/03 15:13:45;;;;;;;6.45;1.83;;;;;;;;;;6144980;23;20118;-60
2023/06/03 15:16:13;;;;;;;5.97;2.08;;;;;;;;;;6142640;23;20077;-62